sensor_id;sensor_type;location;lat;lon;timestamp;temperature;humidity
34815;DHT22;21030;53.912;15.214;2024-02-23T00:00:36;26.40;42.30
34815;DHT22;21030;53.912;15.214;2024-02-23T00:03:03;26.70;42.10
34815;DHT22;21030;53.912;15.214;2024-02-23T00:05:30;27.00;41.20
34815;DHT22;21030;53.912;15.214;2024-02-23T00:07:58;26.50;41.70
34815;DHT22;21030;53.912;15.214;2024-02-23T00:10:25;26.80;41.90
34815;DHT22;21030;53.912;15.214;2024-02-23T00:12:52;26.70;41.70
34815;DHT22;21030;53.912;15.214;2024-02-23T00:15:19;26.10;42.60
34815;DHT22;21030;53.912;15.214;2024-02-23T00:17:46;26.70;41.70
34815;DHT22;21030;53.912;15.214;2024-02-23T00:20:13;26.30;41.70
34815;DHT22;21030;53.912;15.214;2024-02-23T00:22:42;26.60;41.60
34815;DHT22;21030;53.912;15.214;2024-02-23T00:25:09;26.20;41.50
34815;DHT22;21030;53.912;15.214;2024-02-23T00:27:36;26.10;43.20
34815;DHT22;21030;53.912;15.214;2024-02-23T00:30:03;26.70;41.80
34815;DHT22;21030;53.912;15.214;2024-02-23T00:32:31;26.40;41.70
34815;DHT22;21030;53.912;15.214;2024-02-23T00:34:59;26.40;41.90
34815;DHT22;21030;53.912;15.214;2024-02-23T00:37:26;26.20;42.10
34815;DHT22;21030;53.912;15.214;2024-02-23T00:39:53;26.30;42.30
34815;DHT22;21030;53.912;15.214;2024-02-23T00:42:20;25.90;42.60
34815;DHT22;21030;53.912;15.214;2024-02-23T00:44:47;25.90;43.20
34815;DHT22;21030;53.912;15.214;2024-02-23T00:47:14;25.80;43.20
34815;DHT22;21030;53.912;15.214;2024-02-23T00:49:41;26.10;43.20
34815;DHT22;21030;53.912;15.214;2024-02-23T00:52:08;25.80;43.50
34815;DHT22;21030;53.912;15.214;2024-02-23T00:54:35;26.00;43.00
34815;DHT22;21030;53.912;15.214;2024-02-23T00:57:02;25.60;44.10
34815;DHT22;21030;53.912;15.214;2024-02-23T00:59:29;26.10;42.50
34815;DHT22;21030;53.912;15.214;2024-02-23T01:01:56;26.40;41.90
34815;DHT22;21030;53.912;15.214;2024-02-23T01:04:23;26.00;42.40
34815;DHT22;21030;53.912;15.214;2024-02-23T01:06:50;24.70;44.70
34815;DHT22;21030;53.912;15.214;2024-02-23T01:09:18;24.50;46.00
34815;DHT22;21030;53.912;15.214;2024-02-23T01:11:47;24.90;45.10
34815;DHT22;21030;53.912;15.214;2024-02-23T01:14:15;25.10;44.60
34815;DHT22;21030;53.912;15.214;2024-02-23T01:16:42;25.70;43.70
34815;DHT22;21030;53.912;15.214;2024-02-23T01:19:09;26.00;43.40
34815;DHT22;21030;53.912;15.214;2024-02-23T01:21:36;26.00;43.00
34815;DHT22;21030;53.912;15.214;2024-02-23T01:24:04;26.00;42.50
34815;DHT22;21030;53.912;15.214;2024-02-23T01:26:31;26.40;42.40
34815;DHT22;21030;53.912;15.214;2024-02-23T01:28:58;26.00;42.50
34815;DHT22;21030;53.912;15.214;2024-02-23T01:31:25;26.30;42.90
34815;DHT22;21030;53.912;15.214;2024-02-23T01:33:53;26.80;42.10
34815;DHT22;21030;53.912;15.214;2024-02-23T01:36:20;25.60;42.90
34815;DHT22;21030;53.912;15.214;2024-02-23T01:38:47;25.70;43.40
34815;DHT22;21030;53.912;15.214;2024-02-23T01:41:14;26.30;42.60
34815;DHT22;21030;53.912;15.214;2024-02-23T01:43:41;25.90;42.70
34815;DHT22;21030;53.912;15.214;2024-02-23T01:46:08;26.30;42.20
34815;DHT22;21030;53.912;15.214;2024-02-23T01:48:35;25.90;42.60
34815;DHT22;21030;53.912;15.214;2024-02-23T01:51:03;25.50;44.10
34815;DHT22;21030;53.912;15.214;2024-02-23T01:53:30;25.20;43.80
34815;DHT22;21030;53.912;15.214;2024-02-23T01:55:58;25.30;43.40
34815;DHT22;21030;53.912;15.214;2024-02-23T01:58:27;26.30;42.80
34815;DHT22;21030;53.912;15.214;2024-02-23T02:00:54;27.00;41.50
34815;DHT22;21030;53.912;15.214;2024-02-23T02:03:21;26.50;41.40
34815;DHT22;21030;53.912;15.214;2024-02-23T02:05:48;27.30;40.80
34815;DHT22;21030;53.912;15.214;2024-02-23T02:08:17;26.70;41.30
34815;DHT22;21030;53.912;15.214;2024-02-23T02:10:44;25.90;42.70
34815;DHT22;21030;53.912;15.214;2024-02-23T02:13:12;25.80;42.40
34815;DHT22;21030;53.912;15.214;2024-02-23T02:15:39;26.60;41.80
34815;DHT22;21030;53.912;15.214;2024-02-23T02:18:06;26.30;41.30
34815;DHT22;21030;53.912;15.214;2024-02-23T02:20:36;27.30;40.70
34815;DHT22;21030;53.912;15.214;2024-02-23T02:23:03;26.90;40.70
34815;DHT22;21030;53.912;15.214;2024-02-23T02:25:31;26.10;41.70
34815;DHT22;21030;53.912;15.214;2024-02-23T02:27:58;26.00;42.70
34815;DHT22;21030;53.912;15.214;2024-02-23T02:30:25;26.60;41.50
34815;DHT22;21030;53.912;15.214;2024-02-23T02:32:52;26.60;41.50
34815;DHT22;21030;53.912;15.214;2024-02-23T02:35:20;25.60;42.30
34815;DHT22;21030;53.912;15.214;2024-02-23T02:37:49;25.40;43.00
34815;DHT22;21030;53.912;15.214;2024-02-23T02:40:18;25.30;43.40
34815;DHT22;21030;53.912;15.214;2024-02-23T02:42:47;24.90;43.70
34815;DHT22;21030;53.912;15.214;2024-02-23T02:45:15;25.30;43.70
34815;DHT22;21030;53.912;15.214;2024-02-23T02:47:47;25.70;42.50
34815;DHT22;21030;53.912;15.214;2024-02-23T02:50:17;24.90;43.80
34815;DHT22;21030;53.912;15.214;2024-02-23T02:52:46;25.00;43.40
34815;DHT22;21030;53.912;15.214;2024-02-23T02:55:15;25.00;43.20
34815;DHT22;21030;53.912;15.214;2024-02-23T02:57:44;25.90;42.70
34815;DHT22;21030;53.912;15.214;2024-02-23T03:00:13;25.70;42.40
34815;DHT22;21030;53.912;15.214;2024-02-23T03:02:42;25.40;42.40
34815;DHT22;21030;53.912;15.214;2024-02-23T03:05:10;25.00;43.40
34815;DHT22;21030;53.912;15.214;2024-02-23T03:07:39;25.40;43.00
34815;DHT22;21030;53.912;15.214;2024-02-23T03:10:08;25.60;42.00
34815;DHT22;21030;53.912;15.214;2024-02-23T03:12:37;25.50;42.90
34815;DHT22;21030;53.912;15.214;2024-02-23T03:15:05;25.70;42.00
34815;DHT22;21030;53.912;15.214;2024-02-23T03:17:34;25.30;42.70
34815;DHT22;21030;53.912;15.214;2024-02-23T03:20:04;24.70;43.50
34815;DHT22;21030;53.912;15.214;2024-02-23T03:22:39;24.60;44.40
34815;DHT22;21030;53.912;15.214;2024-02-23T03:25:09;24.90;44.00
34815;DHT22;21030;53.912;15.214;2024-02-23T03:27:38;24.60;44.20
34815;DHT22;21030;53.912;15.214;2024-02-23T03:30:07;24.20;44.50
34815;DHT22;21030;53.912;15.214;2024-02-23T03:32:36;23.90;45.50
34815;DHT22;21030;53.912;15.214;2024-02-23T03:35:07;24.10;45.40
34815;DHT22;21030;53.912;15.214;2024-02-23T03:37:39;24.00;45.10
34815;DHT22;21030;53.912;15.214;2024-02-23T03:40:08;23.40;46.20
34815;DHT22;21030;53.912;15.214;2024-02-23T03:42:37;23.50;46.30
34815;DHT22;21030;53.912;15.214;2024-02-23T03:45:06;23.60;45.50
34815;DHT22;21030;53.912;15.214;2024-02-23T03:47:35;23.60;45.50
34815;DHT22;21030;53.912;15.214;2024-02-23T03:50:04;23.60;45.10
34815;DHT22;21030;53.912;15.214;2024-02-23T03:52:32;23.90;44.00
34815;DHT22;21030;53.912;15.214;2024-02-23T03:55:01;24.40;43.30
34815;DHT22;21030;53.912;15.214;2024-02-23T03:57:31;24.90;41.90
34815;DHT22;21030;53.912;15.214;2024-02-23T04:00:02;26.00;40.90
34815;DHT22;21030;53.912;15.214;2024-02-23T04:02:31;26.00;39.80
34815;DHT22;21030;53.912;15.214;2024-02-23T04:05:00;26.40;39.20
34815;DHT22;21030;53.912;15.214;2024-02-23T04:07:29;27.50;37.20
34815;DHT22;21030;53.912;15.214;2024-02-23T04:09:58;27.50;36.50
34815;DHT22;21030;53.912;15.214;2024-02-23T04:12:27;26.30;35.40
34815;DHT22;21030;53.912;15.214;2024-02-23T04:14:56;25.00;35.00
34815;DHT22;21030;53.912;15.214;2024-02-23T04:17:25;24.10;35.20
34815;DHT22;21030;53.912;15.214;2024-02-23T04:19:53;24.10;33.30
34815;DHT22;21030;53.912;15.214;2024-02-23T04:22:22;24.10;33.50
34815;DHT22;21030;53.912;15.214;2024-02-23T04:24:50;24.30;32.30
34815;DHT22;21030;53.912;15.214;2024-02-23T04:27:17;24.30;31.90
34815;DHT22;21030;53.912;15.214;2024-02-23T04:29:46;24.50;31.40
34815;DHT22;21030;53.912;15.214;2024-02-23T04:32:14;24.30;31.60
34815;DHT22;21030;53.912;15.214;2024-02-23T04:34:43;25.10;32.00
34815;DHT22;21030;53.912;15.214;2024-02-23T04:37:11;26.00;30.50
34815;DHT22;21030;53.912;15.214;2024-02-23T04:39:40;25.40;30.40
34815;DHT22;21030;53.912;15.214;2024-02-23T04:42:10;25.00;30.60
34815;DHT22;21030;53.912;15.214;2024-02-23T04:44:40;24.80;30.80
34815;DHT22;21030;53.912;15.214;2024-02-23T04:47:09;24.10;31.30
34815;DHT22;21030;53.912;15.214;2024-02-23T04:49:38;24.40;31.60
34815;DHT22;21030;53.912;15.214;2024-02-23T04:52:07;24.60;31.70
34815;DHT22;21030;53.912;15.214;2024-02-23T04:54:36;25.10;31.30
34815;DHT22;21030;53.912;15.214;2024-02-23T04:57:05;26.40;30.20
34815;DHT22;21030;53.912;15.214;2024-02-23T04:59:32;25.80;29.30
34815;DHT22;21030;53.912;15.214;2024-02-23T05:01:59;26.40;29.10
34815;DHT22;21030;53.912;15.214;2024-02-23T05:04:27;25.70;29.80
34815;DHT22;21030;53.912;15.214;2024-02-23T05:06:54;26.00;29.40
34815;DHT22;21030;53.912;15.214;2024-02-23T05:09:21;25.90;29.40
34815;DHT22;21030;53.912;15.214;2024-02-23T05:11:48;25.50;29.70
34815;DHT22;21030;53.912;15.214;2024-02-23T05:14:15;25.90;29.60
34815;DHT22;21030;53.912;15.214;2024-02-23T05:16:42;26.00;29.50
34815;DHT22;21030;53.912;15.214;2024-02-23T05:19:09;26.10;29.20
34815;DHT22;21030;53.912;15.214;2024-02-23T05:21:36;25.60;29.40
34815;DHT22;21030;53.912;15.214;2024-02-23T05:24:03;26.10;29.50
34815;DHT22;21030;53.912;15.214;2024-02-23T05:26:32;26.10;29.20
34815;DHT22;21030;53.912;15.214;2024-02-23T05:28:59;26.40;29.10
34815;DHT22;21030;53.912;15.214;2024-02-23T05:31:48;25.60;29.50
34815;DHT22;21030;53.912;15.214;2024-02-23T05:34:16;25.80;29.80
34815;DHT22;21030;53.912;15.214;2024-02-23T05:36:43;25.50;30.30
34815;DHT22;21030;53.912;15.214;2024-02-23T05:39:10;25.90;30.00
34815;DHT22;21030;53.912;15.214;2024-02-23T05:41:39;26.10;30.00
34815;DHT22;21030;53.912;15.214;2024-02-23T05:44:06;25.70;30.00
34815;DHT22;21030;53.912;15.214;2024-02-23T05:46:33;25.30;30.70
34815;DHT22;21030;53.912;15.214;2024-02-23T05:49:02;24.80;31.30
34815;DHT22;21030;53.912;15.214;2024-02-23T05:51:31;24.40;31.90
34815;DHT22;21030;53.912;15.214;2024-02-23T05:53:58;24.50;32.10
34815;DHT22;21030;53.912;15.214;2024-02-23T05:56:25;23.20;33.10
34815;DHT22;21030;53.912;15.214;2024-02-23T05:58:53;22.50;34.50
34815;DHT22;21030;53.912;15.214;2024-02-23T06:01:20;23.30;34.40
34815;DHT22;21030;53.912;15.214;2024-02-23T06:03:47;23.80;33.40
34815;DHT22;21030;53.912;15.214;2024-02-23T06:06:14;24.10;32.30
34815;DHT22;21030;53.912;15.214;2024-02-23T06:08:41;24.00;32.60
34815;DHT22;21030;53.912;15.214;2024-02-23T06:11:09;23.50;33.00
34815;DHT22;21030;53.912;15.214;2024-02-23T06:13:37;23.40;33.00
34815;DHT22;21030;53.912;15.214;2024-02-23T06:16:09;23.60;32.60
34815;DHT22;21030;53.912;15.214;2024-02-23T06:18:37;23.70;32.70
34815;DHT22;21030;53.912;15.214;2024-02-23T06:21:17;23.70;31.80
34815;DHT22;21030;53.912;15.214;2024-02-23T06:23:44;23.20;32.40
34815;DHT22;21030;53.912;15.214;2024-02-23T06:26:11;23.50;32.10
34815;DHT22;21030;53.912;15.214;2024-02-23T06:28:39;23.70;31.50
34815;DHT22;21030;53.912;15.214;2024-02-23T06:31:09;23.90;31.60
34815;DHT22;21030;53.912;15.214;2024-02-23T06:33:36;24.50;30.50
34815;DHT22;21030;53.912;15.214;2024-02-23T06:36:04;24.30;30.70
34815;DHT22;21030;53.912;15.214;2024-02-23T06:38:32;24.40;31.10
34815;DHT22;21030;53.912;15.214;2024-02-23T06:40:59;24.10;30.90
34815;DHT22;21030;53.912;15.214;2024-02-23T06:43:26;24.00;31.30
34815;DHT22;21030;53.912;15.214;2024-02-23T06:45:53;24.50;30.30
34815;DHT22;21030;53.912;15.214;2024-02-23T06:48:20;25.20;29.80
34815;DHT22;21030;53.912;15.214;2024-02-23T06:50:47;23.90;30.80
34815;DHT22;21030;53.912;15.214;2024-02-23T06:53:14;24.60;31.10
34815;DHT22;21030;53.912;15.214;2024-02-23T06:55:41;25.00;29.80
34815;DHT22;21030;53.912;15.214;2024-02-23T06:58:08;25.10;30.00
34815;DHT22;21030;53.912;15.214;2024-02-23T07:00:37;24.80;30.00
34815;DHT22;21030;53.912;15.214;2024-02-23T07:03:05;24.50;30.10
34815;DHT22;21030;53.912;15.214;2024-02-23T07:05:32;24.70;30.50
34815;DHT22;21030;53.912;15.214;2024-02-23T07:07:59;25.20;30.00
34815;DHT22;21030;53.912;15.214;2024-02-23T07:10:27;25.80;29.80
34815;DHT22;21030;53.912;15.214;2024-02-23T07:12:54;26.60;29.00
34815;DHT22;21030;53.912;15.214;2024-02-23T07:15:22;25.90;29.20
34815;DHT22;21030;53.912;15.214;2024-02-23T07:17:49;25.20;29.70
34815;DHT22;21030;53.912;15.214;2024-02-23T07:20:17;25.90;29.90
34815;DHT22;21030;53.912;15.214;2024-02-23T07:22:45;25.40;30.00
34815;DHT22;21030;53.912;15.214;2024-02-23T07:25:18;25.30;30.10
34815;DHT22;21030;53.912;15.214;2024-02-23T07:27:49;26.60;30.00
34815;DHT22;21030;53.912;15.214;2024-02-23T07:30:16;27.30;28.80
34815;DHT22;21030;53.912;15.214;2024-02-23T07:32:44;26.60;28.80
34815;DHT22;21030;53.912;15.214;2024-02-23T07:35:15;26.40;29.20
34815;DHT22;21030;53.912;15.214;2024-02-23T07:37:42;25.90;29.50
34815;DHT22;21030;53.912;15.214;2024-02-23T07:40:09;25.80;29.80
34815;DHT22;21030;53.912;15.214;2024-02-23T07:42:37;26.40;29.80
34815;DHT22;21030;53.912;15.214;2024-02-23T07:45:04;27.20;29.30
34815;DHT22;21030;53.912;15.214;2024-02-23T07:47:31;27.70;28.40
34815;DHT22;21030;53.912;15.214;2024-02-23T07:49:59;28.00;28.00
34815;DHT22;21030;53.912;15.214;2024-02-23T07:52:26;29.30;27.60
34815;DHT22;21030;53.912;15.214;2024-02-23T07:54:53;31.00;26.50
34815;DHT22;21030;53.912;15.214;2024-02-23T07:57:21;31.00;25.20
34815;DHT22;21030;53.912;15.214;2024-02-23T07:59:48;30.30;25.50
34815;DHT22;21030;53.912;15.214;2024-02-23T08:02:15;30.80;25.40
34815;DHT22;21030;53.912;15.214;2024-02-23T08:04:42;31.10;25.20
34815;DHT22;21030;53.912;15.214;2024-02-23T08:07:10;30.90;24.80
34815;DHT22;21030;53.912;15.214;2024-02-23T08:09:37;30.50;25.50
34815;DHT22;21030;53.912;15.214;2024-02-23T08:12:05;30.60;25.50
34815;DHT22;21030;53.912;15.214;2024-02-23T08:14:32;30.90;25.30
34815;DHT22;21030;53.912;15.214;2024-02-23T08:16:59;30.90;25.10
34815;DHT22;21030;53.912;15.214;2024-02-23T08:19:27;29.90;25.70
34815;DHT22;21030;53.912;15.214;2024-02-23T08:21:54;28.50;26.60
34815;DHT22;21030;53.912;15.214;2024-02-23T08:24:21;27.00;28.00
34815;DHT22;21030;53.912;15.214;2024-02-23T08:26:48;26.50;28.90
34815;DHT22;21030;53.912;15.214;2024-02-23T08:29:15;27.00;28.50
34815;DHT22;21030;53.912;15.214;2024-02-23T08:31:42;27.70;28.00
34815;DHT22;21030;53.912;15.214;2024-02-23T08:34:09;28.30;27.20
34815;DHT22;21030;53.912;15.214;2024-02-23T08:36:36;27.90;27.40
34815;DHT22;21030;53.912;15.214;2024-02-23T08:39:03;28.60;27.00
34815;DHT22;21030;53.912;15.214;2024-02-23T08:41:31;29.10;26.00
34815;DHT22;21030;53.912;15.214;2024-02-23T08:43:58;30.20;25.30
34815;DHT22;21030;53.912;15.214;2024-02-23T08:46:25;30.20;25.30
34815;DHT22;21030;53.912;15.214;2024-02-23T08:48:52;31.20;24.50
34815;DHT22;21030;53.912;15.214;2024-02-23T08:51:19;29.60;24.60
34815;DHT22;21030;53.912;15.214;2024-02-23T08:53:46;28.20;25.60
34815;DHT22;21030;53.912;15.214;2024-02-23T08:56:13;27.80;26.00
34815;DHT22;21030;53.912;15.214;2024-02-23T08:58:43;27.60;26.50
34815;DHT22;21030;53.912;15.214;2024-02-23T09:01:10;27.50;26.60
34815;DHT22;21030;53.912;15.214;2024-02-23T09:03:37;26.80;26.80
34815;DHT22;21030;53.912;15.214;2024-02-23T09:06:04;26.60;26.90
34815;DHT22;21030;53.912;15.214;2024-02-23T09:08:32;26.60;27.60
34815;DHT22;21030;53.912;15.214;2024-02-23T09:10:59;27.10;27.00
34815;DHT22;21030;53.912;15.214;2024-02-23T09:13:26;26.90;27.10
34815;DHT22;21030;53.912;15.214;2024-02-23T09:15:54;26.50;27.60
34815;DHT22;21030;53.912;15.214;2024-02-23T09:18:21;27.20;27.30
34815;DHT22;21030;53.912;15.214;2024-02-23T09:20:48;26.90;27.00
34815;DHT22;21030;53.912;15.214;2024-02-23T09:23:15;24.70;28.60
34815;DHT22;21030;53.912;15.214;2024-02-23T09:25:42;24.30;29.20
34815;DHT22;21030;53.912;15.214;2024-02-23T09:28:10;23.70;29.50
34815;DHT22;21030;53.912;15.214;2024-02-23T09:30:38;24.60;29.30
34815;DHT22;21030;53.912;15.214;2024-02-23T09:33:05;26.30;27.80
34815;DHT22;21030;53.912;15.214;2024-02-23T09:35:33;26.30;27.50
34815;DHT22;21030;53.912;15.214;2024-02-23T09:38:00;26.50;27.10
34815;DHT22;21030;53.912;15.214;2024-02-23T09:40:27;26.90;26.60
34815;DHT22;21030;53.912;15.214;2024-02-23T09:42:58;27.00;26.90
34815;DHT22;21030;53.912;15.214;2024-02-23T09:45:26;26.20;27.20
34815;DHT22;21030;53.912;15.214;2024-02-23T09:47:56;26.80;27.00
34815;DHT22;21030;53.912;15.214;2024-02-23T09:50:24;25.90;28.00
34815;DHT22;21030;53.912;15.214;2024-02-23T09:52:51;25.00;28.30
34815;DHT22;21030;53.912;15.214;2024-02-23T09:55:21;25.30;28.00
34815;DHT22;21030;53.912;15.214;2024-02-23T09:57:51;26.20;28.00
34815;DHT22;21030;53.912;15.214;2024-02-23T10:00:19;27.80;26.80
34815;DHT22;21030;53.912;15.214;2024-02-23T10:02:47;28.50;25.80
34815;DHT22;21030;53.912;15.214;2024-02-23T10:05:14;29.40;26.00
34815;DHT22;21030;53.912;15.214;2024-02-23T10:07:43;29.90;25.00
34815;DHT22;21030;53.912;15.214;2024-02-23T10:10:11;30.60;24.90
34815;DHT22;21030;53.912;15.214;2024-02-23T10:12:38;29.80;24.20
34815;DHT22;21030;53.912;15.214;2024-02-23T10:15:06;28.40;24.80
34815;DHT22;21030;53.912;15.214;2024-02-23T10:17:33;28.00;24.80
34815;DHT22;21030;53.912;15.214;2024-02-23T10:20:03;28.30;25.20
34815;DHT22;21030;53.912;15.214;2024-02-23T10:22:33;28.10;24.50
34815;DHT22;21030;53.912;15.214;2024-02-23T10:25:02;26.80;25.90
34815;DHT22;21030;53.912;15.214;2024-02-23T10:27:29;26.90;26.00
34815;DHT22;21030;53.912;15.214;2024-02-23T10:29:56;27.20;26.10
34815;DHT22;21030;53.912;15.214;2024-02-23T10:32:23;26.50;26.30
34815;DHT22;21030;53.912;15.214;2024-02-23T10:34:52;25.80;26.50
34815;DHT22;21030;53.912;15.214;2024-02-23T10:37:22;25.20;27.00
34815;DHT22;21030;53.912;15.214;2024-02-23T10:39:53;26.60;26.60
34815;DHT22;21030;53.912;15.214;2024-02-23T10:42:24;26.80;26.00
34815;DHT22;21030;53.912;15.214;2024-02-23T10:44:53;26.80;26.10
34815;DHT22;21030;53.912;15.214;2024-02-23T10:47:22;28.20;25.10
34815;DHT22;21030;53.912;15.214;2024-02-23T10:49:49;28.80;24.80
34815;DHT22;21030;53.912;15.214;2024-02-23T10:52:17;29.10;24.20
34815;DHT22;21030;53.912;15.214;2024-02-23T10:54:46;29.60;24.00
34815;DHT22;21030;53.912;15.214;2024-02-23T10:57:15;28.90;23.50
34815;DHT22;21030;53.912;15.214;2024-02-23T10:59:46;27.60;24.40
34815;DHT22;21030;53.912;15.214;2024-02-23T11:02:19;27.40;25.00
34815;DHT22;21030;53.912;15.214;2024-02-23T11:04:48;27.80;24.30
34815;DHT22;21030;53.912;15.214;2024-02-23T11:07:20;27.80;24.20
34815;DHT22;21030;53.912;15.214;2024-02-23T11:09:57;28.60;23.60
34815;DHT22;21030;53.912;15.214;2024-02-23T11:12:29;28.30;23.50
34815;DHT22;21030;53.912;15.214;2024-02-23T11:14:57;28.10;23.90
34815;DHT22;21030;53.912;15.214;2024-02-23T11:17:29;28.10;23.80
34815;DHT22;21030;53.912;15.214;2024-02-23T11:19:57;28.10;24.00
34815;DHT22;21030;53.912;15.214;2024-02-23T11:22:31;29.90;23.40
34815;DHT22;21030;53.912;15.214;2024-02-23T11:25:06;30.60;22.30
34815;DHT22;21030;53.912;15.214;2024-02-23T11:27:38;31.40;22.10
34815;DHT22;21030;53.912;15.214;2024-02-23T11:30:10;30.70;22.00
34815;DHT22;21030;53.912;15.214;2024-02-23T11:32:45;30.70;22.30
34815;DHT22;21030;53.912;15.214;2024-02-23T11:35:16;30.70;21.70
34815;DHT22;21030;53.912;15.214;2024-02-23T11:40:14;29.30;22.60
34815;DHT22;21030;53.912;15.214;2024-02-23T11:42:41;30.20;22.50
34815;DHT22;21030;53.912;15.214;2024-02-23T11:45:11;30.80;22.10
34815;DHT22;21030;53.912;15.214;2024-02-23T11:47:38;30.10;22.10
34815;DHT22;21030;53.912;15.214;2024-02-23T11:50:09;29.70;22.20
34815;DHT22;21030;53.912;15.214;2024-02-23T11:52:38;29.80;21.90
34815;DHT22;21030;53.912;15.214;2024-02-23T11:55:06;28.30;22.20
34815;DHT22;21030;53.912;15.214;2024-02-23T11:57:33;27.70;22.90
34815;DHT22;21030;53.912;15.214;2024-02-23T12:00:13;27.20;23.50
34815;DHT22;21030;53.912;15.214;2024-02-23T12:02:40;28.10;22.80
34815;DHT22;21030;53.912;15.214;2024-02-23T12:05:08;28.70;22.50
34815;DHT22;21030;53.912;15.214;2024-02-23T12:07:35;29.60;21.80
34815;DHT22;21030;53.912;15.214;2024-02-23T12:10:03;30.40;22.00
34815;DHT22;21030;53.912;15.214;2024-02-23T12:12:30;32.10;21.30
34815;DHT22;21030;53.912;15.214;2024-02-23T12:14:57;33.10;21.00
34815;DHT22;21030;53.912;15.214;2024-02-23T12:17:26;34.60;20.60
34815;DHT22;21030;53.912;15.214;2024-02-23T12:19:59;35.10;19.00
34815;DHT22;21030;53.912;15.214;2024-02-23T12:22:27;33.60;19.40
34815;DHT22;21030;53.912;15.214;2024-02-23T12:24:58;31.90;19.50
34815;DHT22;21030;53.912;15.214;2024-02-23T12:27:26;30.30;20.90
34815;DHT22;21030;53.912;15.214;2024-02-23T12:29:54;29.90;21.00
34815;DHT22;21030;53.912;15.214;2024-02-23T12:32:21;30.30;21.20
34815;DHT22;21030;53.912;15.214;2024-02-23T12:34:49;30.40;21.50
34815;DHT22;21030;53.912;15.214;2024-02-23T12:37:20;30.70;21.20
34815;DHT22;21030;53.912;15.214;2024-02-23T12:39:51;30.40;21.20
34815;DHT22;21030;53.912;15.214;2024-02-23T12:42:18;30.30;21.80
34815;DHT22;21030;53.912;15.214;2024-02-23T12:44:46;30.90;21.00
34815;DHT22;21030;53.912;15.214;2024-02-23T12:47:14;31.20;20.90
34815;DHT22;21030;53.912;15.214;2024-02-23T12:49:41;30.70;20.40
34815;DHT22;21030;53.912;15.214;2024-02-23T12:52:12;31.00;20.70
34815;DHT22;21030;53.912;15.214;2024-02-23T12:54:39;30.00;20.80
34815;DHT22;21030;53.912;15.214;2024-02-23T12:57:06;29.10;21.00
34815;DHT22;21030;53.912;15.214;2024-02-23T12:59:34;28.40;22.00
34815;DHT22;21030;53.912;15.214;2024-02-23T13:02:01;29.00;21.70
34815;DHT22;21030;53.912;15.214;2024-02-23T13:04:28;29.30;21.60
34815;DHT22;21030;53.912;15.214;2024-02-23T13:06:55;29.10;21.70
34815;DHT22;21030;53.912;15.214;2024-02-23T13:09:23;29.70;21.80
34815;DHT22;21030;53.912;15.214;2024-02-23T13:11:50;30.20;21.30
34815;DHT22;21030;53.912;15.214;2024-02-23T13:14:17;29.10;21.00
34815;DHT22;21030;53.912;15.214;2024-02-23T13:16:44;28.80;21.90
34815;DHT22;21030;53.912;15.214;2024-02-23T13:19:11;29.70;21.00
34815;DHT22;21030;53.912;15.214;2024-02-23T13:21:38;29.70;21.60
34815;DHT22;21030;53.912;15.214;2024-02-23T13:24:05;30.30;21.10
34815;DHT22;21030;53.912;15.214;2024-02-23T13:26:33;29.40;20.90
34815;DHT22;21030;53.912;15.214;2024-02-23T13:29:00;28.90;21.70
34815;DHT22;21030;53.912;15.214;2024-02-23T13:31:27;28.90;22.10
34815;DHT22;21030;53.912;15.214;2024-02-23T13:33:54;28.30;22.10
34815;DHT22;21030;53.912;15.214;2024-02-23T13:36:21;29.10;21.90
34815;DHT22;21030;53.912;15.214;2024-02-23T13:38:48;28.90;21.80
34815;DHT22;21030;53.912;15.214;2024-02-23T13:41:16;28.70;21.40
34815;DHT22;21030;53.912;15.214;2024-02-23T13:43:44;28.40;21.60
34815;DHT22;21030;53.912;15.214;2024-02-23T13:46:11;28.10;22.10
34815;DHT22;21030;53.912;15.214;2024-02-23T13:48:38;28.30;22.50
34815;DHT22;21030;53.912;15.214;2024-02-23T13:51:05;28.10;22.50
34815;DHT22;21030;53.912;15.214;2024-02-23T13:53:32;27.70;22.60
34815;DHT22;21030;53.912;15.214;2024-02-23T13:56:00;27.60;22.60
34815;DHT22;21030;53.912;15.214;2024-02-23T13:58:29;27.00;23.40
34815;DHT22;21030;53.912;15.214;2024-02-23T14:00:56;27.40;23.20
34815;DHT22;21030;53.912;15.214;2024-02-23T14:03:24;27.90;23.10
34815;DHT22;21030;53.912;15.214;2024-02-23T14:05:51;28.30;22.30
34815;DHT22;21030;53.912;15.214;2024-02-23T14:08:18;27.80;22.10
34815;DHT22;21030;53.912;15.214;2024-02-23T14:10:45;27.70;22.50
34815;DHT22;21030;53.912;15.214;2024-02-23T14:13:13;26.90;22.90
34815;DHT22;21030;53.912;15.214;2024-02-23T14:15:40;26.80;23.50
34815;DHT22;21030;53.912;15.214;2024-02-23T14:18:07;27.60;23.30
34815;DHT22;21030;53.912;15.214;2024-02-23T14:20:34;27.80;22.90
34815;DHT22;21030;53.912;15.214;2024-02-23T14:23:01;27.80;22.70
34815;DHT22;21030;53.912;15.214;2024-02-23T14:25:28;28.20;22.60
34815;DHT22;21030;53.912;15.214;2024-02-23T14:27:55;28.60;22.70
34815;DHT22;21030;53.912;15.214;2024-02-23T14:30:22;29.00;22.50
34815;DHT22;21030;53.912;15.214;2024-02-23T14:32:49;29.30;22.60
34815;DHT22;21030;53.912;15.214;2024-02-23T14:35:17;28.80;23.40
34815;DHT22;21030;53.912;15.214;2024-02-23T14:37:44;28.00;24.20
34815;DHT22;21030;53.912;15.214;2024-02-23T14:40:11;28.30;24.20
34815;DHT22;21030;53.912;15.214;2024-02-23T14:42:38;28.30;24.40
34815;DHT22;21030;53.912;15.214;2024-02-23T14:45:07;28.60;24.20
34815;DHT22;21030;53.912;15.214;2024-02-23T14:47:36;28.50;24.20
34815;DHT22;21030;53.912;15.214;2024-02-23T14:50:12;28.10;24.30
34815;DHT22;21030;53.912;15.214;2024-02-23T14:52:39;29.10;23.70
34815;DHT22;21030;53.912;15.214;2024-02-23T14:55:06;29.20;23.70
34815;DHT22;21030;53.912;15.214;2024-02-23T14:57:33;29.10;23.70
34815;DHT22;21030;53.912;15.214;2024-02-23T15:00:02;28.50;23.50
34815;DHT22;21030;53.912;15.214;2024-02-23T15:02:30;28.60;24.30
34815;DHT22;21030;53.912;15.214;2024-02-23T15:04:57;28.80;24.10
34815;DHT22;21030;53.912;15.214;2024-02-23T15:07:24;29.50;23.70
34815;DHT22;21030;53.912;15.214;2024-02-23T15:09:51;30.20;23.30
34815;DHT22;21030;53.912;15.214;2024-02-23T15:12:18;29.50;23.10
34815;DHT22;21030;53.912;15.214;2024-02-23T15:14:46;29.80;23.30
34815;DHT22;21030;53.912;15.214;2024-02-23T15:17:13;30.60;22.90
34815;DHT22;21030;53.912;15.214;2024-02-23T15:19:40;30.80;22.90
34815;DHT22;21030;53.912;15.214;2024-02-23T15:22:07;30.90;22.50